Terminal Aerodrome Forecast
Issued by NWS Pueblo, CO

Home | Current Version | Previous Version | Text Only | Print | Product List | Glossary On
Versions: 1 2 3 4 5 6 7 8 9 10 11 12 13 14 15 16 17 18 19 20 21 22 23 24 25 26 27 28
000
FTUS45 KPUB 012325
TAFALS
TAF
KALS 012325Z 0200/0224 20007KT P6SM VCTS FEW060CB SCT110 BKN150
     FM020400 VRB05KT P6SM FEW060 SCT120
     FM021200 VRB04KT P6SM FEW200=

USA.gov is the U.S. government's official web portal to all federal, state and local government web resources and services.